Pondicherry, India
Current Conditions -  °F | °C
As of 7:40 AM on Saturday 20 Dec 2014 (Local Time) from VOMM Reporting Station
Haze Haze  
Wind Chill: 75°   Ceiling: Unl
Heat Index: 75°   Visibility: 1.8mi
Dew Point: 70°   Wind: 3mph
Humidity: 83%   Direction: 340°NNW
Pressure: 29.97"   Gusts: NA
Location:  11.93°N, 79.88°E
Report Text: VOMM 200240Z 34003KT 3000 BR FEW020 24/21 Q1015 NOSIG
Loading
Personal Weather Stations






























Interactive Weather Map New forecast layout! Learn more

10-Day Weather Forecast

Advertisements
Track Severe Weather on mobile